Time;durP1;ratioP1;P1;durP2;ratioP2;P2;SDS_P1;SDS_P2;PMS_P1;PMS_P2;Temp;Humidity;BMP_temperature;BMP_pressure;BME280_temperature;BME280_humidity;BME280_pressure;Samples;Min_cycle;Max_cycle;Signal;HPM_P1;HPM_P2
2024/04/09 00:00:43;;;;;;;;;0.00;0.00;;;;;17.25;100.00;100190.31;2277725;25;45070;-65
2024/04/09 00:01:43;;;;;;;;;1.00;0.00;;;;;17.20;100.00;100189.72;2281592;25;45629;-65
2024/04/09 00:02:43;;;;;;;;;0.00;0.00;;;;;17.16;100.00;100188.19;2287966;25;45801;-65
2024/04/09 00:03:44;;;;;;;;;0.00;0.00;;;;;17.11;100.00;100184.88;2289971;25;44433;-66
2024/04/09 00:04:44;;;;;;;;;0.67;0.00;;;;;17.07;100.00;100191.38;2281128;25;45651;-65
2024/04/09 00:05:45;;;;;;;;;0.67;0.00;;;;;16.96;100.00;100194.66;2281128;25;45880;-65
2024/04/09 00:06:45;;;;;;;;;0.00;0.00;;;;;16.94;100.00;100183.16;2279263;25;44796;-65
2024/04/09 00:07:46;;;;;;;;;0.00;0.00;;;;;16.95;100.00;100187.56;2277444;25;43691;-65
2024/04/09 00:08:47;;;;;;;;;0.00;0.00;;;;;16.93;100.00;100186.78;2283341;25;45640;-66
2024/04/09 00:09:51;;;;;;;;;0.00;0.00;;;;;16.94;100.00;100182.28;2278355;25;44880;-66
2024/04/09 00:10:52;;;;;;;;;0.75;0.00;;;;;16.98;100.00;100181.16;2280715;25;45372;-66
2024/04/09 00:11:53;;;;;;;;;0.00;0.00;;;;;16.98;100.00;100183.84;2278118;25;44280;-65
2024/04/09 00:12:54;;;;;;;;;0.00;0.00;;;;;16.96;100.00;100177.72;2277815;25;44631;-65
2024/04/09 00:13:58;;;;;;;;;0.00;0.00;;;;;16.92;100.00;100168.97;2277914;25;45758;-65
2024/04/09 00:14:59;;;;;;;;;0.00;0.00;;;;;16.89;100.00;100174.50;2279327;25;45155;-65
2024/04/09 00:16:00;;;;;;;;;0.00;0.00;;;;;16.89;100.00;100170.94;2279794;25;45161;-65
2024/04/09 00:17:01;;;;;;;;;0.00;0.00;;;;;16.87;100.00;100181.75;2262504;26;45646;-65
2024/04/09 00:18:11;;;;;;;;;0.00;0.00;;;;;16.85;100.00;100181.00;2250155;26;44860;-64
2024/04/09 00:19:13;;;;;;;;;0.00;0.00;;;;;16.82;100.00;100201.75;2265120;25;45016;-65
2024/04/09 00:20:18;;;;;;;;;0.00;0.00;;;;;16.80;100.00;100187.56;2276933;25;45880;-66
2024/04/09 00:21:20;;;;;;;;;0.00;0.00;;;;;16.79;100.00;100185.84;2270424;25;45214;-65
2024/04/09 00:22:23;;;;;;;;;0.00;0.00;;;;;16.76;100.00;100185.03;2264399;25;48981;-65
2024/04/09 00:23:24;;;;;;;;;0.00;0.00;;;;;16.74;100.00;100189.63;2286045;25;45668;-65
2024/04/09 00:24:25;;;;;;;;;0.25;0.00;;;;;16.71;100.00;100183.56;2277892;25;45063;-65
2024/04/09 00:25:26;;;;;;;;;0.50;0.00;;;;;16.66;100.00;100197.19;2278267;25;44944;-65
2024/04/09 00:26:29;;;;;;;;;0.00;0.00;;;;;16.60;100.00;100200.19;2278225;25;45049;-65
2024/04/09 00:27:29;;;;;;;;;0.00;0.00;;;;;16.59;100.00;100193.13;2277755;25;45562;-65
2024/04/09 00:28:29;;;;;;;;;0.00;0.00;;;;;16.53;100.00;100190.78;2278182;25;45022;-65
2024/04/09 00:29:31;;;;;;;;;0.00;0.00;;;;;16.54;100.00;100197.88;2290850;25;45081;-65
2024/04/09 00:30:32;;;;;;;;;0.00;0.00;;;;;16.49;100.00;100195.44;2292915;25;45237;-66
2024/04/09 00:31:32;;;;;;;;;0.00;0.00;;;;;16.43;100.00;100197.59;2293708;25;44645;-66
2024/04/09 00:32:33;;;;;;;;;0.00;0.00;;;;;16.35;100.00;100197.13;2281689;25;45217;-65
2024/04/09 00:33:34;;;;;;;;;0.00;0.00;;;;;16.31;100.00;100196.44;2279051;25;45743;-66
2024/04/09 00:34:34;;;;;;;;;0.00;0.00;;;;;16.28;100.00;100195.75;2293567;25;45307;-67
2024/04/09 00:35:35;;;;;;;;;0.00;0.00;;;;;16.26;100.00;100194.94;2254635;26;44590;-67
2024/04/09 00:36:36;;;;;;;;;0.00;0.00;;;;;16.27;100.00;100192.19;2261770;25;45174;-67
2024/04/09 00:37:41;;;;;;;;;0.00;0.00;;;;;16.25;100.00;100191.38;2284482;25;45188;-65
2024/04/09 00:38:41;;;;;;;;;0.00;0.00;;;;;16.25;100.00;100198.56;2284981;25;45170;-65
2024/04/09 00:39:42;;;;;;;;;0.00;0.00;;;;;16.19;100.00;100205.13;2278020;25;44990;-66
2024/04/09 00:40:42;;;;;;;;;0.00;0.00;;;;;16.15;100.00;100201.75;2277816;25;45353;-65
2024/04/09 00:41:43;;;;;;;;;1.00;0.00;;;;;16.14;100.00;100200.00;2278282;25;45440;-65
2024/04/09 00:42:43;;;;;;;;;0.00;0.00;;;;;16.13;100.00;100203.63;2293609;25;45191;-65
2024/04/09 00:43:45;;;;;;;;;0.33;0.33;;;;;16.12;100.00;100201.88;2278478;25;45271;-65
2024/04/09 00:44:48;;;;;;;;;0.00;0.00;;;;;16.08;100.00;100207.50;2277737;25;45443;-65
2024/04/09 00:45:50;;;;;;;;;0.00;0.00;;;;;16.04;100.00;100209.47;2292344;25;45810;-65
2024/04/09 00:46:51;;;;;;;;;0.00;0.00;;;;;16.02;100.00;100213.19;2291661;25;45276;-66
2024/04/09 00:47:53;;;;;;;;;0.00;0.00;;;;;16.01;100.00;100208.78;2293760;25;45536;-66
2024/04/09 00:48:54;;;;;;;;;0.00;0.00;;;;;16.05;100.00;100210.34;2279743;25;45440;-66
2024/04/09 00:49:54;;;;;;;;;0.00;0.00;;;;;16.05;100.00;100205.84;2280868;25;45474;-66
2024/04/09 00:50:56;;;;;;;;;0.00;0.00;;;;;16.04;100.00;100205.94;2293513;25;45318;-65
2024/04/09 00:51:58;;;;;;;;;0.00;0.00;;;;;16.05;100.00;100210.34;2282599;25;45145;-66
2024/04/09 00:53:00;;;;;;;;;0.00;0.00;;;;;16.06;100.00;100217.41;2277967;25;44859;-66
2024/04/09 00:54:03;;;;;;;;;0.00;0.00;;;;;16.09;100.00;100219.94;2277959;25;45257;-65
2024/04/09 00:55:04;;;;;;;;;0.25;0.00;;;;;16.06;100.00;100212.94;2280005;25;45965;-66
2024/04/09 00:56:07;;;;;;;;;0.00;0.00;;;;;16.03;100.00;100215.78;2262257;25;44903;-66
2024/04/09 00:57:07;;;;;;;;;0.00;0.00;;;;;16.03;100.00;100214.91;2275974;25;45279;-66
2024/04/09 00:58:11;;;;;;;;;0.00;0.00;;;;;16.03;100.00;100212.22;2288948;25;45851;-65
2024/04/09 00:59:12;;;;;;;;;0.00;0.00;;;;;16.03;100.00;100212.22;2293336;25;45335;-66
2024/04/09 01:00:14;;;;;;;;;0.00;0.00;;;;;16.01;100.00;100212.31;2291835;25;45359;-66
2024/04/09 01:01:16;;;;;;;;;0.00;0.00;;;;;16.01;100.00;100216.81;2289970;25;45500;-67
2024/04/09 01:02:16;;;;;;;;;0.00;0.00;;;;;16.03;100.00;100214.91;2262431;26;46612;-67
2024/04/09 01:03:17;;;;;;;;;0.00;0.00;;;;;16.03;100.00;100218.44;2274632;25;44661;-67
2024/04/09 01:04:17;;;;;;;;;0.00;0.00;;;;;16.07;100.00;100216.47;2293120;25;45811;-65
2024/04/09 01:05:18;;;;;;;;;0.00;0.00;;;;;16.09;100.00;100218.09;2277168;25;44726;-66
2024/04/09 01:06:18;;;;;;;;;0.00;0.00;;;;;16.12;100.00;100214.41;2281131;25;45490;-66
2024/04/09 01:07:19;;;;;;;;;0.00;0.00;;;;;16.15;100.00;100230.31;2277767;25;45392;-66
2024/04/09 01:08:19;;;;;;;;;0.00;0.00;;;;;16.19;100.00;100235.44;2277804;25;45023;-66
2024/04/09 01:09:20;;;;;;;;;0.00;0.00;;;;;16.16;100.00;100226.69;2277340;25;45075;-66
2024/04/09 01:10:20;;;;;;;;;0.00;0.00;;;;;16.19;100.00;100227.41;2284093;25;45455;-67
2024/04/09 01:11:20;;;;;;;;;0.00;0.00;;;;;16.21;100.00;100230.00;2282274;25;45563;-67
2024/04/09 01:12:21;;;;;;;;;0.00;0.00;;;;;16.24;100.00;100219.09;2277842;25;44566;-66
2024/04/09 01:13:21;;;;;;;;;2.00;0.00;;;;;16.18;100.00;100230.16;2277743;25;45130;-65
2024/04/09 01:14:21;;;;;;;;;0.67;0.00;;;;;16.08;100.00;100232.44;2277694;25;44201;-67
2024/04/09 01:15:22;;;;;;;;;0.00;0.00;;;;;16.03;100.00;100230.97;2261925;26;45018;-66
2024/04/09 01:16:22;;;;;;;;;0.00;0.00;;;;;16.01;100.00;100239.06;2248700;26;45133;-67
2024/04/09 01:17:24;;;;;;;;;0.00;0.00;;;;;16.02;100.00;100253.31;2248783;26;45211;-67
2024/04/09 01:18:25;;;;;;;;;0.00;0.00;;;;;15.98;100.00;100238.34;2278073;25;45685;-66
2024/04/09 01:19:25;;;;;;;;;0.00;0.00;;;;;15.95;100.00;100246.53;2280067;25;44563;-67
2024/04/09 01:20:25;;;;;;;;;0.00;0.00;;;;;15.93;100.00;100251.97;2277639;25;45395;-66
2024/04/09 01:21:26;;;;;;;;;0.00;0.00;;;;;15.91;100.00;100253.00;2277504;25;45768;-65
2024/04/09 01:22:31;;;;;;;;;0.00;0.00;;;;;15.86;100.00;100264.78;2277958;25;45459;-65
2024/04/09 01:23:31;;;;;;;;;0.00;0.00;;;;;15.83;100.00;100253.38;2277648;25;45963;-66
2024/04/09 01:24:34;;;;;;;;;1.67;0.00;;;;;15.78;100.00;100260.78;2277492;25;44212;-66
2024/04/09 01:25:34;;;;;;;;;0.00;0.00;;;;;15.74;100.00;100261.84;2277481;25;45799;-65
2024/04/09 01:26:35;;;;;;;;;1.00;0.00;;;;;15.75;100.00;100252.88;2277581;25;45540;-65
2024/04/09 01:27:40;;;;;;;;;0.00;0.00;;;;;15.78;100.00;100258.97;2287233;25;45479;-66
2024/04/09 01:28:41;;;;;;;;;0.00;0.00;;;;;15.67;100.00;100255.09;2291449;25;45551;-65
2024/04/09 01:29:43;;;;;;;;;0.75;0.00;;;;;15.64;100.00;100257.94;2277665;25;45288;-65
2024/04/09 01:30:43;;;;;;;;;0.00;0.00;;;;;15.58;100.00;100273.28;2280366;25;45385;-66
2024/04/09 01:31:45;;;;;;;;;0.00;0.00;;;;;15.55;100.00;100272.59;2285455;25;45344;-68
2024/04/09 01:32:46;;;;;;;;;0.00;0.00;;;;;15.54;100.00;100274.41;2278729;25;45437;-67
2024/04/09 01:33:46;;;;;;;;;0.33;0.00;;;;;15.55;100.00;100270.78;2280522;25;45483;-66
2024/04/09 01:34:47;;;;;;;;;0.67;0.00;;;;;15.58;100.00;100275.97;2277652;25;45335;-65
2024/04/09 01:35:50;;;;;;;;;0.00;0.00;;;;;15.58;100.00;100269.75;2280402;25;45238;-64
2024/04/09 01:36:51;;;;;;;;;0.00;0.00;;;;;15.58;100.00;100267.94;2277316;25;45246;-65
2024/04/09 01:37:51;;;;;;;;;0.00;0.00;;;;;15.64;100.00;100274.00;2277846;25;45018;-66
2024/04/09 01:38:52;;;;;;;;;0.00;0.00;;;;;15.63;100.00;100277.59;2281322;25;45294;-65
2024/04/09 01:39:52;;;;;;;;;0.00;0.00;;;;;15.63;100.00;100270.44;2281125;25;45394;-64
2024/04/09 01:40:52;;;;;;;;;0.67;0.00;;;;;15.64;100.00;100274.84;2277471;25;45591;-66
2024/04/09 01:41:53;;;;;;;;;0.00;0.00;;;;;15.62;100.00;100282.06;2281043;25;45066;-65
2024/04/09 01:42:54;;;;;;;;;0.00;0.00;;;;;15.59;100.00;100279.50;2278732;25;45772;-65
2024/04/09 01:43:54;;;;;;;;;0.00;0.00;;;;;15.56;100.00;100280.53;2284955;25;45529;-65
2024/04/09 01:44:54;;;;;;;;;1.00;0.00;;;;;15.51;100.00;100271.88;2285975;25;45633;-66
2024/04/09 01:45:55;;;;;;;;;0.00;0.00;;;;;15.50;100.00;100282.63;2281874;25;45824;-65
2024/04/09 01:46:55;;;;;;;;;0.00;0.00;;;;;15.49;100.00;100271.06;2282906;25;45391;-65
2024/04/09 01:47:55;;;;;;;;;0.33;0.00;;;;;15.55;100.00;100275.25;2277641;25;45420;-64
2024/04/09 01:48:56;;;;;;;;;0.00;0.00;;;;;15.59;100.00;100271.50;2290400;25;45184;-65
2024/04/09 01:49:57;;;;;;;;;0.00;0.00;;;;;15.56;100.00;100272.50;2280050;25;46040;-64
2024/04/09 01:50:57;;;;;;;;;0.00;0.00;;;;;15.55;100.00;100277.94;2261718;26;45748;-65
2024/04/09 01:51:58;;;;;;;;;0.00;0.00;;;;;15.46;100.00;100281.06;2269630;25;44969;-64
2024/04/09 01:52:59;;;;;;;;;0.33;0.33;;;;;15.46;100.00;100265.88;2277549;25;45306;-65
2024/04/09 01:53:59;;;;;;;;;1.00;0.00;;;;;15.47;100.00;100289.00;2289993;25;45381;-64
2024/04/09 01:54:59;;;;;;;;;0.00;0.00;;;;;15.38;100.00;100281.44;2288241;25;45032;-65
2024/04/09 01:56:03;;;;;;;;;1.00;0.00;;;;;15.39;100.00;100276.97;2292641;25;44849;-65
2024/04/09 01:57:04;;;;;;;;;0.00;0.00;;;;;15.37;100.00;100289.50;2288947;25;45224;-65
2024/04/09 01:58:05;;;;;;;;;0.00;0.00;;;;;15.29;100.00;100274.72;2288094;25;45271;-65
2024/04/09 01:59:05;;;;;;;;;0.00;0.00;;;;;15.20;100.00;100284.97;2277567;25;45401;-65
2024/04/09 02:00:19;;;;;;;;;2.33;0.00;;;;;15.21;100.00;100286.72;2278783;25;45017;-64
2024/04/09 02:01:21;;;;;;;;;0.00;0.00;;;;;15.20;100.00;100280.50;2279864;25;45411;-65
2024/04/09 02:02:21;;;;;;;;;0.25;0.25;;;;;15.18;100.00;100279.72;2277521;25;45172;-65
2024/04/09 02:03:21;;;;;;;;;1.33;0.00;;;;;15.17;100.00;100277.97;2278867;25;45153;-65
2024/04/09 02:04:22;;;;;;;;;0.00;0.00;;;;;15.15;100.00;100284.34;2286779;25;45174;-65
2024/04/09 02:05:22;;;;;;;;;0.33;0.00;;;;;15.13;100.00;100276.41;2278830;25;45106;-65
2024/04/09 02:06:23;;;;;;;;;0.00;0.00;;;;;15.14;100.00;100278.13;2278989;25;45403;-66
2024/04/09 02:07:24;;;;;;;;;0.00;0.00;;;;;15.13;100.00;100280.88;2278181;25;45130;-65
2024/04/09 02:08:26;;;;;;;;;0.00;0.00;;;;;15.12;100.00;100279.13;2267517;25;44297;-65
2024/04/09 02:09:27;;;;;;;;;0.25;0.00;;;;;15.05;100.00;100283.03;2235552;26;45149;-64
2024/04/09 02:10:28;;;;;;;;;0.00;0.00;;;;;14.97;100.00;100278.03;2231430;26;45592;-64
2024/04/09 02:11:28;;;;;;;;;0.00;0.00;;;;;14.91;100.00;100291.69;2262693;25;45094;-64
2024/04/09 02:12:29;;;;;;;;;1.33;0.00;;;;;14.86;100.00;100294.56;2278524;25;43780;-65
2024/04/09 02:13:30;;;;;;;;;0.67;0.00;;;;;14.83;100.00;100292.03;2282121;25;45625;-66
2024/04/09 02:14:30;;;;;;;;;0.67;0.67;;;;;14.87;100.00;100304.34;2281767;25;45207;-64
2024/04/09 02:15:31;;;;;;;;;1.00;0.33;;;;;14.88;100.00;100300.72;2278500;25;43670;-66
2024/04/09 02:16:31;;;;;;;;;1.67;0.67;;;;;14.90;100.00;100304.19;2278577;25;45345;-65
2024/04/09 02:17:32;;;;;;;;;1.00;1.00;;;;;14.95;100.00;100312.00;2280339;25;44814;-65
2024/04/09 02:18:32;;;;;;;;;0.00;0.00;;;;;14.90;100.00;100309.53;2279818;25;45452;-64
2024/04/09 02:19:33;;;;;;;;;0.00;0.00;;;;;14.89;100.00;100312.28;2284276;25;44860;-64
2024/04/09 02:20:33;;;;;;;;;0.67;0.00;;;;;15.10;100.00;100326.44;2281676;25;44724;-64
2024/04/09 02:21:34;;;;;;;;;1.00;1.00;;;;;15.03;100.00;100315.19;2281594;25;45337;-65
2024/04/09 02:22:34;;;;;;;;;1.00;0.00;;;;;15.01;100.00;100333.09;2278289;25;45415;-66
2024/04/09 02:23:39;;;;;;;;;0.00;0.00;;;;;15.01;100.00;100335.78;2263124;26;45336;-65
2024/04/09 02:24:40;;;;;;;;;0.00;0.00;;;;;15.02;100.00;100335.69;2278505;25;45742;-65
2024/04/09 02:25:40;;;;;;;;;1.00;0.00;;;;;14.98;100.00;100339.44;2288233;25;45099;-65
2024/04/09 02:26:41;;;;;;;;;0.00;0.00;;;;;14.91;100.00;100343.34;2278334;25;44701;-66
2024/04/09 02:27:42;;;;;;;;;0.00;0.00;;;;;14.92;100.00;100342.41;2284435;25;45175;-65
2024/04/09 02:28:43;;;;;;;;;0.00;0.00;;;;;14.79;100.00;100343.88;2282168;25;45473;-66
2024/04/09 02:29:43;;;;;;;;;1.75;0.00;;;;;14.77;100.00;100348.44;2278412;25;45580;-66
2024/04/09 02:30:44;;;;;;;;;0.00;0.00;;;;;14.78;100.00;100350.16;2278122;25;45355;-66
2024/04/09 02:31:44;;;;;;;;;0.00;0.00;;;;;14.89;100.00;100357.72;2278624;25;45408;-66
2024/04/09 02:32:45;;;;;;;;;0.00;0.00;;;;;14.90;100.00;100346.06;2284604;25;45543;-66
2024/04/09 02:33:45;;;;;;;;;0.00;0.00;;;;;14.90;100.00;100348.75;2268232;25;44916;-66
2024/04/09 02:34:45;;;;;;;;;0.00;0.00;;;;;14.89;100.00;100355.03;2277853;25;45234;-66
2024/04/09 02:36:04;;;;;;;;;0.00;0.00;;;;;14.87;100.00;100348.91;2281965;25;45033;-65
2024/04/09 02:37:04;;;;;;;;;0.25;0.25;;;;;14.86;100.00;100348.00;2279377;25;45255;-65
2024/04/09 02:38:04;;;;;;;;;0.67;0.00;;;;;14.88;100.00;100347.97;2274310;25;44944;-65
2024/04/09 02:39:08;;;;;;;;;0.33;0.00;;;;;14.68;100.00;100344.38;2270217;25;45231;-65
2024/04/09 02:40:15;;;;;;;;;0.00;0.00;;;;;14.62;100.00;100338.44;2278155;25;45178;-65
2024/04/09 02:41:16;;;;;;;;;0.00;0.00;;;;;14.65;100.00;100343.63;2278297;25;45528;-65
2024/04/09 02:42:18;;;;;;;;;1.00;0.00;;;;;14.68;100.00;100356.84;2278301;25;44394;-65
2024/04/09 02:43:21;;;;;;;;;3.25;0.75;;;;;14.68;100.00;100357.72;2283130;25;45535;-65
2024/04/09 02:44:22;;;;;;;;;1.00;0.00;;;;;14.66;100.00;100370.28;2278544;25;45471;-65
2024/04/09 02:45:23;;;;;;;;;0.00;0.00;;;;;14.65;100.00;100349.84;2282570;25;44965;-66
2024/04/09 02:46:24;;;;;;;;;0.00;0.00;;;;;14.64;100.00;100357.94;2282572;25;44946;-67
2024/04/09 02:47:24;;;;;;;;;0.00;0.00;;;;;14.61;100.00;100363.38;2277838;25;44969;-67
2024/04/09 02:48:25;;;;;;;;;1.00;0.00;;;;;14.61;100.00;100374.06;2238701;26;44945;-66
2024/04/09 02:49:25;;;;;;;;;0.00;0.00;;;;;14.61;100.00;100390.09;2244550;26;45085;-65
2024/04/09 02:50:26;;;;;;;;;1.67;0.33;;;;;14.60;100.00;100383.00;2285698;25;45199;-66
2024/04/09 02:51:26;;;;;;;;;0.00;0.00;;;;;14.62;100.00;100386.50;2290107;25;45188;-66
2024/04/09 02:52:26;;;;;;;;;0.00;0.00;;;;;14.59;100.00;100391.97;2279135;25;44908;-67
2024/04/09 02:53:27;;;;;;;;;2.00;0.00;;;;;14.56;100.00;100389.44;2291582;25;44972;-67
2024/04/09 02:54:28;;;;;;;;;0.67;0.00;;;;;14.56;100.00;100392.09;2276347;25;44314;-67
2024/04/09 02:55:28;;;;;;;;;0.00;0.00;;;;;14.54;100.00;100394.84;2277806;25;45419;-66
2024/04/09 02:56:28;;;;;;;;;0.00;0.00;;;;;14.53;100.00;100400.25;2279895;25;45105;-66
2024/04/09 02:57:30;;;;;;;;;1.00;1.00;;;;;14.53;100.00;100408.25;2282603;25;45323;-66
2024/04/09 02:58:34;;;;;;;;;0.00;0.00;;;;;14.51;100.00;100421.69;2280521;25;45351;-67
2024/04/09 02:59:34;;;;;;;;;0.50;0.00;;;;;14.51;100.00;100416.34;2268943;25;45076;-65
2024/04/09 03:00:38;;;;;;;;;0.00;0.00;;;;;14.48;100.00;100420.91;2276496;25;45393;-67
2024/04/09 03:01:38;;;;;;;;;0.00;0.00;;;;;14.47;100.00;100419.19;2251164;26;45583;-67
2024/04/09 03:02:39;;;;;;;;;0.00;0.00;;;;;14.49;100.00;100433.38;2255561;25;45212;-66
2024/04/09 03:03:39;;;;;;;;;0.00;0.00;;;;;14.47;100.00;100424.53;2253190;26;45174;-66
2024/04/09 03:04:39;;;;;;;;;0.00;0.00;;;;;14.43;100.00;100427.31;2260890;26;45058;-66
2024/04/09 03:05:40;;;;;;;;;1.33;0.33;;;;;14.43;100.00;100435.31;2257451;26;45234;-67
2024/04/09 03:06:40;;;;;;;;;0.67;0.00;;;;;14.48;100.00;100436.94;2258296;26;45573;-66
2024/04/09 03:07:41;;;;;;;;;0.00;0.00;;;;;14.39;100.00;100440.84;2255334;26;45037;-68
2024/04/09 03:08:42;;;;;;;;;0.00;0.00;;;;;14.39;100.00;100430.19;2256466;26;44771;-67
2024/04/09 03:09:43;;;;;;;;;1.75;0.00;;;;;14.37;100.00;100424.91;2249054;26;43875;-67
2024/04/09 03:10:43;;;;;;;;;1.00;0.00;;;;;14.38;100.00;100426.63;2247463;26;45709;-67
2024/04/09 03:11:43;;;;;;;;;1.00;0.00;;;;;14.41;100.00;100430.97;2254624;26;44933;-66
2024/04/09 03:12:43;;;;;;;;;0.00;0.00;;;;;14.45;100.00;100429.06;2260291;26;45405;-66
2024/04/09 03:13:46;;;;;;;;;0.00;0.00;;;;;14.47;100.00;100432.53;2247316;26;45689;-66
2024/04/09 03:14:47;;;;;;;;;0.00;0.00;;;;;14.50;100.00;100437.78;2254416;26;44609;-65
2024/04/09 03:15:47;;;;;;;;;0.00;0.00;;;;;14.49;100.00;100455.59;2262160;26;45615;-66
2024/04/09 03:16:48;;;;;;;;;1.00;1.00;;;;;14.49;100.00;100449.38;2257738;26;44413;-66
2024/04/09 03:17:48;;;;;;;;;0.00;0.00;;;;;14.47;100.00;100448.56;2256844;26;45066;-67
2024/04/09 03:18:53;;;;;;;;;0.00;0.00;;;;;14.48;100.00;100453.81;2231302;26;45081;-67
2024/04/09 03:19:53;;;;;;;;;1.75;0.50;;;;;14.48;100.00;100456.50;2240196;26;46125;-67
2024/04/09 03:20:58;;;;;;;;;0.00;0.00;;;;;14.49;100.00;100441.38;2258796;26;45534;-66
2024/04/09 03:21:58;;;;;;;;;0.50;0.50;;;;;14.45;100.00;100437.94;2250203;26;45838;-67
2024/04/09 03:22:59;;;;;;;;;1.67;1.00;;;;;14.50;100.00;100451.13;2252932;26;45506;-66
2024/04/09 03:23:59;;;;;;;;;1.67;1.00;;;;;14.50;100.00;100460.00;2261726;26;45092;-66
2024/04/09 03:25:00;;;;;;;;;0.00;0.00;;;;;14.51;100.00;100458.19;2261618;26;45173;-69
2024/04/09 03:26:01;;;;;;;;;0.00;0.00;;;;;14.50;100.00;100465.34;2255458;26;45029;-69
2024/04/09 03:27:01;;;;;;;;;0.00;0.00;;;;;14.53;100.00;100451.00;2262034;26;45894;-68
2024/04/09 03:28:01;;;;;;;;;0.00;0.00;;;;;14.51;100.00;100468.88;2255527;26;45874;-66
2024/04/09 03:29:02;;;;;;;;;1.00;0.00;;;;;14.57;100.00;100464.13;2257787;26;45187;-68
2024/04/09 03:30:04;;;;;;;;;0.00;0.00;;;;;14.59;100.00;100477.41;2260169;26;45284;-66
2024/04/09 03:31:05;;;;;;;;;0.00;0.00;;;;;14.61;100.00;100471.09;2246977;26;45515;-66
2024/04/09 03:32:05;;;;;;;;;0.25;0.25;;;;;14.59;100.00;100478.28;2230275;26;45717;-67
2024/04/09 03:33:06;;;;;;;;;0.67;0.67;;;;;14.58;100.00;100481.88;2240792;26;44781;-66
2024/04/09 03:34:06;;;;;;;;;0.00;0.00;;;;;14.55;100.00;100482.03;2279755;25;45409;-67
2024/04/09 03:35:06;;;;;;;;;2.00;0.00;;;;;14.57;100.00;100484.63;2286890;25;44834;-67
2024/04/09 03:36:09;;;;;;;;;1.33;0.00;;;;;14.54;100.00;100490.97;2284110;25;45608;-67
2024/04/09 03:37:09;;;;;;;;;0.00;0.00;;;;;14.52;100.00;100489.31;2278533;25;45567;-67
2024/04/09 03:38:09;;;;;;;;;2.00;0.67;;;;;14.66;100.00;100495.81;2276679;25;44899;-67
2024/04/09 03:39:09;;;;;;;;;0.33;0.33;;;;;14.71;100.00;100493.78;2267026;25;44783;-67
2024/04/09 03:40:10;;;;;;;;;0.67;0.67;;;;;14.78;100.00;100506.91;2285711;25;45599;-67
2024/04/09 03:41:10;;;;;;;;;1.00;1.00;;;;;14.77;100.00;100516.72;2281800;25;45548;-66
2024/04/09 03:42:11;;;;;;;;;1.67;0.00;;;;;14.72;100.00;100500.88;2282054;25;45412;-67
2024/04/09 03:43:11;;;;;;;;;0.00;0.00;;;;;14.71;100.00;100506.28;2279682;25;45640;-67
2024/04/09 03:44:11;;;;;;;;;0.00;0.00;;;;;14.70;100.00;100509.88;2277884;25;45445;-66
2024/04/09 03:45:11;;;;;;;;;0.00;0.00;;;;;14.68;100.00;100498.41;2279237;25;45392;-67
2024/04/09 03:46:14;;;;;;;;;2.67;0.00;;;;;14.73;100.00;100499.94;2279992;25;45489;-67
2024/04/09 03:47:14;;;;;;;;;0.75;0.75;;;;;14.72;100.00;100505.34;2281742;25;45271;-67
2024/04/09 03:48:14;;;;;;;;;1.67;0.00;;;;;14.80;100.00;100505.91;2284420;25;44663;-66
2024/04/09 03:49:15;;;;;;;;;1.00;1.00;;;;;14.84;100.00;100503.97;2293244;25;45337;-67
2024/04/09 03:50:15;;;;;;;;;1.00;0.00;;;;;14.84;100.00;100512.84;2289219;25;44968;-67
2024/04/09 03:51:19;;;;;;;;;0.67;0.67;;;;;14.90;100.00;100507.25;2289139;25;44275;-66
2024/04/09 03:52:20;;;;;;;;;0.00;0.00;;;;;14.94;100.00;100505.31;2278187;25;45628;-66
2024/04/09 03:53:20;;;;;;;;;1.00;0.00;;;;;14.97;100.00;100516.72;2278189;25;44311;-66
2024/04/09 03:54:20;;;;;;;;;0.00;0.00;;;;;14.96;100.00;100512.31;2281073;25;44645;-67
2024/04/09 03:55:21;;;;;;;;;1.00;1.00;;;;;14.95;100.00;100505.25;2277859;25;45161;-67
2024/04/09 03:56:21;;;;;;;;;0.00;0.00;;;;;14.93;100.00;100514.25;2282202;25;43818;-67
2024/04/09 03:57:22;;;;;;;;;1.33;0.00;;;;;14.90;100.00;100509.06;2285808;25;45156;-67
2024/04/09 03:58:26;;;;;;;;;0.25;0.00;;;;;14.86;100.00;100504.75;2280257;25;48138;-66
2024/04/09 03:59:27;;;;;;;;;0.00;0.00;;;;;14.83;100.00;100508.44;2283265;25;44862;-67
2024/04/09 04:00:27;;;;;;;;;0.00;0.00;;;;;14.85;100.00;100516.38;2288640;25;44706;-67
2024/04/09 04:01:27;;;;;;;;;0.00;0.00;;;;;14.83;100.00;100511.09;2253355;26;45154;-69
2024/04/09 04:02:28;;;;;;;;;2.00;1.67;;;;;14.81;100.00;100507.63;2257859;26;45152;-66
2024/04/09 04:03:30;;;;;;;;;0.00;0.00;;;;;14.72;100.00;100508.03;2278014;25;45387;-67
2024/04/09 04:04:31;;;;;;;;;0.75;0.75;;;;;14.72;100.00;100508.03;2284629;25;45225;-65
2024/04/09 04:05:31;;;;;;;;;3.00;0.00;;;;;14.67;100.00;100510.91;2279944;25;44979;-66
2024/04/09 04:06:31;;;;;;;;;0.00;0.00;;;;;14.65;100.00;100503.88;2283800;25;45231;-67
2024/04/09 04:07:31;;;;;;;;;0.00;0.00;;;;;14.58;100.00;100519.28;2283537;25;43805;-66
2024/04/09 04:08:34;;;;;;;;;0.00;0.00;;;;;14.51;100.00;100515.13;2287444;25;45087;-66
2024/04/09 04:09:34;;;;;;;;;0.00;0.00;;;;;14.47;100.00;100524.19;2285709;25;45492;-66
2024/04/09 04:10:36;;;;;;;;;0.00;0.00;;;;;14.47;100.00;100529.53;2282728;25;45384;-67
2024/04/09 04:11:37;;;;;;;;;0.00;0.00;;;;;14.44;100.00;100524.31;2280870;25;45480;-66
2024/04/09 04:12:37;;;;;;;;;0.00;0.00;;;;;14.46;100.00;100529.59;2279306;25;45470;-66
2024/04/09 04:13:39;;;;;;;;;0.00;0.00;;;;;14.48;100.00;100531.25;2279677;25;45154;-66
2024/04/09 04:14:39;;;;;;;;;0.00;0.00;;;;;14.48;100.00;100527.72;2277995;25;45497;-66
2024/04/09 04:15:39;;;;;;;;;0.00;0.00;;;;;14.56;100.00;100528.28;2286235;25;46061;-65
2024/04/09 04:16:40;;;;;;;;;0.00;0.00;;;;;14.58;100.00;100523.75;2278275;25;44715;-65
2024/04/09 04:17:40;;;;;;;;;0.00;0.00;;;;;14.61;100.00;100515.59;2286524;25;45623;-67
2024/04/09 04:18:47;;;;;;;;;1.67;0.00;;;;;14.64;100.00;100516.38;2283037;25;44807;-66
2024/04/09 04:19:48;;;;;;;;;0.00;0.00;;;;;14.66;100.00;100524.31;2279921;25;45635;-66
2024/04/09 04:20:55;;;;;;;;;0.00;0.00;;;;;14.68;100.00;100512.63;2277505;25;44997;-65
2024/04/09 04:21:55;;;;;;;;;2.50;1.00;;;;;14.67;100.00;100518.03;2279561;25;45573;-66
2024/04/09 04:22:55;;;;;;;;;1.00;1.00;;;;;14.67;100.00;100510.91;2277696;25;45061;-65
2024/04/09 04:23:56;;;;;;;;;1.00;1.00;;;;;14.68;100.00;100509.09;2264563;25;44560;-66
2024/04/09 04:24:56;;;;;;;;;1.00;1.00;;;;;14.70;100.00;100510.75;2267128;25;45021;-65
2024/04/09 04:26:02;;;;;;;;;1.00;1.00;;;;;14.74;100.00;100511.53;2282646;25;45281;-65
2024/04/09 04:27:03;;;;;;;;;0.00;0.00;;;;;14.76;100.00;100508.78;2283387;25;45635;-65
2024/04/09 04:28:03;;;;;;;;;0.00;0.00;;;;;14.77;100.00;100518.53;2286712;25;44454;-65
2024/04/09 04:29:03;;;;;;;;;0.00;0.00;;;;;14.76;100.00;100506.09;2254355;26;45605;-65
2024/04/09 04:30:05;;;;;;;;;2.33;0.33;;;;;14.76;100.00;100511.44;2249224;26;44377;-66
2024/04/09 04:31:11;;;;;;;;;0.00;0.00;;;;;14.78;100.00;100509.56;2260774;26;43986;-66
2024/04/09 04:32:11;;;;;;;;;0.00;0.00;;;;;14.80;100.00;100510.38;2262522;25;45053;-67
2024/04/09 04:33:12;;;;;;;;;0.67;0.67;;;;;14.80;100.00;100503.22;2286664;25;45038;-68
2024/04/09 04:34:14;;;;;;;;;0.00;0.00;;;;;14.83;100.00;100505.75;2286947;25;45302;-68
2024/04/09 04:35:16;;;;;;;;;0.50;0.00;;;;;14.85;100.00;100516.38;2276155;25;44710;-69
2024/04/09 04:36:17;;;;;;;;;0.00;0.00;;;;;14.86;100.00;100518.13;2277831;25;45678;-68
2024/04/09 04:37:17;;;;;;;;;1.50;1.00;;;;;14.86;100.00;100518.13;2280104;25;45368;-66
2024/04/09 04:38:18;;;;;;;;;1.00;1.00;;;;;14.88;100.00;100511.81;2278025;25;44441;-65
2024/04/09 04:39:19;;;;;;;;;0.33;0.33;;;;;14.87;100.00;100510.06;2276736;25;45720;-66
2024/04/09 04:40:20;;;;;;;;;0.00;0.00;;;;;14.86;100.00;100505.63;2277292;25;45703;-67
2024/04/09 04:41:21;;;;;;;;;0.00;0.00;;;;;14.85;100.00;100509.22;2278398;25;44759;-66